Pagina principale
METAR-TAF:

METAR-TAF

Aeroporti :

Évreux, Francia

latitudine: 49-01N, longitudine: 001-13E, altezza: 141 m

Osservazione

Il bollettino è stato emesso 36 minuti fa, alle 22:00 UTC
Vento 6 kt da nord/nord-est
Temperature 21°C
Umidità 69%
Pressione 1021 hPa
Visibilità 10 km o più
nessuna nube inferiore a 1500 m e nessun cumulonembo

METAR: LFOE 222200Z AUTO 03006KT CAVOK 21/15 Q1021 NOSIG

Ora: 00:36 (22:36 UTC)

Previsione

Il bollettino è stato emesso 2 ore e 36 minuti fa, alle 20:00 UTC
Previsione valida dal 22 alle 21 UTC al 23 alle 21 UTC
Vento 3 kt da est/nord-est
Visibilità 10 km o più
nessuna nube inferiore a 1500 m e nessun cumulonembo

TAF: LFOE 222000Z 2221/2321 06003KT CAVOK

Osservazioni e previsioni meteorologiche di più di 4000 aeroporti (messaggi METAR e TAF).

Le stazioni disponibili sono rappresentate dai dischi gialli e rossi sulla carta.

Puntare il mouse per vedere il nome della stazione.

Clicca sopra per visualizzare le osservazioni e previsioni meteorologiche.

Per cambiare la mappa : fare clic sui pulsanti verdi con una croce nera per ingrandire, il pulsante verde con un trattino per diminuire, o sulla freccia verde per le mappe adiacenti.


METAR-TAF: